Wetterdaten: Woche 02.10.23 - 08.10.23 (KW40)
Datum Zeit Temp. Aussen Temp. o. S. Temp +5cm Feuchte Auss Luftdruck Regen Sonnenschein Regendauer Solar Windben Empfang
02.10.2023 00:00 16,2 C 14,7 C 11,0 C 90 % 1021,7 hPa 0,0 l/m 0,00 h 0,00 h 0 W/m 1,4 km/h (1 Bft) 95,81 %
02.10.2023 01:00 16,1 C 15,2 C 11,7 C 93 % 1021,7 hPa 0,0 l/m 0,00 h 0,00 h 0 W/m 3,9 km/h (1 Bft) 99,28 %
02.10.2023 02:00 15,8 C 14,8 C 11,4 C 94 % 1021,7 hPa 0,0 l/m 0,00 h 0,00 h 0 W/m 3,5 km/h (1 Bft) 96,97 %
02.10.2023 03:00 15,5 C 14,4 C 11,1 C 94 % 1021,6 hPa 0,0 l/m 0,00 h 0,00 h 0 W/m 3,9 km/h (1 Bft) 96,82 %
02.10.2023 04:00 15,3 C 14,4 C 11,1 C 95 % 1021,4 hPa 0,0 l/m 0,00 h 0,00 h 0 W/m 4,6 km/h (1 Bft) 98,15 %
02.10.2023 05:00 15,0 C 14,0 C 10,8 C 95 % 1021,1 hPa 0,0 l/m 0,00 h 0,00 h 0 W/m 2,9 km/h (1 Bft) 96,58 %
02.10.2023 06:00 14,7 C 13,9 C 10,6 C 95 % 1020,8 hPa 0,0 l/m 0,00 h 0,00 h 0 W/m 6,0 km/h (2 Bft) 97,30 %
02.10.2023 07:00 14,5 C 13,6 C 10,6 C 95 % 1020,9 hPa 0,0 l/m 0,00 h 0,00 h 6 W/m 4,5 km/h (1 Bft) 96,83 %
02.10.2023 08:00 14,4 C 13,9 C 10,7 C 96 % 1021,1 hPa 0,0 l/m 0,00 h 0,00 h 34 W/m 5,1 km/h (1 Bft) 98,27 %
02.10.2023 09:00 15,4 C 15,6 C 11,7 C 95 % 1021,2 hPa 0,0 l/m 0,00 h 0,00 h 60 W/m 7,6 km/h (2 Bft) 95,10 %
02.10.2023 10:00 17,2 C 18,2 C 13,5 C 92 % 1021,0 hPa 0,0 l/m 0,03 h 0,00 h 115 W/m 8,1 km/h (2 Bft) 99,26 %
02.10.2023 11:00 19,7 C 25,1 C 18,1 C 85 % 1020,8 hPa 0,0 l/m 0,48 h 0,00 h 246 W/m 7,1 km/h (2 Bft) 97,36 %
02.10.2023 12:00 21,9 C 22,5 C 17,7 C 80 % 1020,4 hPa 0,0 l/m 0,00 h 0,00 h 174 W/m 8,3 km/h (2 Bft) 97,22 %
02.10.2023 13:00 23,7 C 24,1 C 18,7 C 75 % 1020,1 hPa 0,0 l/m 0,23 h 0,00 h 258 W/m 9,4 km/h (2 Bft) 97,14 %
02.10.2023 14:00 25,3 C 25,7 C 20,0 C 71 % 1019,4 hPa 0,0 l/m 0,80 h 0,00 h 352 W/m 10,3 km/h (2 Bft) 97,79 %
02.10.2023 15:00 25,6 C 25,4 C 20,0 C 69 % 1018,7 hPa 0,0 l/m 0,53 h 0,00 h 252 W/m 7,6 km/h (2 Bft) 97,76 %
02.10.2023 16:00 25,9 C 25,6 C 20,2 C 70 % 1018,0 hPa 0,0 l/m 0,97 h 0,00 h 269 W/m 6,1 km/h (2 Bft) 97,71 %
02.10.2023 17:00 25,8 C 24,8 C 19,7 C 71 % 1017,4 hPa 0,0 l/m 0,87 h 0,00 h 154 W/m 4,3 km/h (1 Bft) 97,07 %
02.10.2023 18:00 25,1 C 23,4 C 18,5 C 73 % 1016,8 hPa 0,0 l/m 0,03 h 0,00 h 38 W/m 3,7 km/h (1 Bft) 99,26 %
02.10.2023 19:00 23,5 C 20,9 C 16,3 C 77 % 1016,4 hPa 0,0 l/m 0,00 h 0,00 h 7 W/m 0,8 km/h (0 Bft) 94,78 %
02.10.2023 20:00 21,6 C 19,5 C 15,2 C 82 % 1015,9 hPa 0,0 l/m 0,00 h 0,00 h 0 W/m 1,3 km/h (1 Bft) 98,65 %
02.10.2023 21:00 20,5 C 19,2 C 15,0 C 82 % 1015,8 hPa 0,0 l/m 0,00 h 0,00 h 0 W/m 1,8 km/h (1 Bft) 96,85 %
02.10.2023 22:00 19,3 C 18,1 C 14,4 C 82 % 1015,2 hPa 0,0 l/m 0,00 h 0,00 h 0 W/m 3,0 km/h (1 Bft) 95,92 %
02.10.2023 23:00 18,7 C 17,8 C 14,2 C 82 % 1014,7 hPa 0,0 l/m 0,00 h 0,00 h 0 W/m 6,3 km/h (2 Bft) 98,33 %
03.10.2023 00:00 18,3 C 17,3 C 13,6 C 84 % 1013,8 hPa 0,0 l/m 0,00 h 0,00 h 0 W/m 5,1 km/h (1 Bft) 96,24 %
03.10.2023 01:00 18,2 C 17,2 C 13,8 C 87 % 1012,9 hPa 0,0 l/m 0,00 h 0,00 h 0 W/m 10,9 km/h (2 Bft) 97,00 %
03.10.2023 02:00 18,2 C 17,2 C 13,9 C 87 % 1012,0 hPa 0,0 l/m 0,00 h 0,00 h 0 W/m 10,3 km/h (2 Bft) 97,72 %
03.10.2023 03:00 18,1 C 17,2 C 13,9 C 87 % 1011,1 hPa 0,0 l/m 0,00 h 0,00 h 0 W/m 8,3 km/h (2 Bft) 97,22 %
03.10.2023 04:00 18,2 C 17,5 C 13,9 C 87 % 1010,0 hPa 0,0 l/m 0,00 h 0,00 h 0 W/m 10,0 km/h (2 Bft) 96,74 %
03.10.2023 05:00 18,3 C 17,3 C 13,7 C 87 % 1009,8 hPa 0,0 l/m 0,00 h 0,00 h 0 W/m 6,4 km/h (2 Bft) 99,03 %
03.10.2023 06:00 18,9 C 18,3 C 14,3 C 86 % 1009,9 hPa 0,0 l/m 0,00 h 0,00 h 0 W/m 10,6 km/h (2 Bft) 96,03 %
03.10.2023 07:00 20,3 C 19,3 C 15,6 C 82 % 1010,2 hPa 0,0 l/m 0,00 h 0,00 h 6 W/m 16,1 km/h (3 Bft) 95,99 %
03.10.2023 08:00 20,0 C 18,9 C 15,1 C 83 % 1011,3 hPa 0,0 l/m 0,00 h 0,00 h 11 W/m 21,5 km/h (4 Bft) 98,00 %
03.10.2023 09:00 19,6 C 18,9 C 15,0 C 84 % 1011,9 hPa 0,0 l/m 0,00 h 0,00 h 72 W/m 15,6 km/h (3 Bft) 96,68 %
03.10.2023 10:00 19,5 C 18,8 C 15,0 C 85 % 1012,6 hPa 0,0 l/m 0,00 h 0,00 h 62 W/m 20,6 km/h (4 Bft) 97,45 %
03.10.2023 11:00 19,7 C 18,9 C 15,1 C 85 % 1012,9 hPa 0,0 l/m 0,00 h 0,00 h 87 W/m 20,9 km/h (4 Bft) 99,51 %
03.10.2023 12:00 18,0 C 16,7 C 12,9 C 93 % 1013,7 hPa 3,4 l/m 0,00 h 0,43 h 82 W/m 19,0 km/h (3 Bft) 94,21 %
03.10.2023 13:00 17,2 C 16,8 C 11,9 C 92 % 1014,4 hPa 0,0 l/m 0,00 h 0,00 h 126 W/m 17,7 km/h (3 Bft) 99,52 %
03.10.2023 14:00 17,1 C 16,7 C 11,4 C 90 % 1015,8 hPa 0,0 l/m 0,20 h 0,13 h 178 W/m 21,6 km/h (4 Bft) 97,38 %
03.10.2023 15:00 17,0 C 16,8 C 11,2 C 88 % 1017,0 hPa 0,0 l/m 0,30 h 0,00 h 231 W/m 21,3 km/h (4 Bft) 96,99 %
03.10.2023 16:00 16,9 C 16,2 C 12,5 C 85 % 1018,5 hPa 0,0 l/m 0,33 h 0,20 h 187 W/m 25,0 km/h (4 Bft) 96,69 %
03.10.2023 17:00 15,5 C 15,2 C 11,4 C 88 % 1020,0 hPa 0,0 l/m 0,62 h 0,00 h 143 W/m 20,3 km/h (4 Bft) 97,71 %
03.10.2023 18:00 15,2 C 14,4 C 11,1 C 85 % 1021,1 hPa 0,0 l/m 0,00 h 0,00 h 29 W/m 9,1 km/h (2 Bft) 96,18 %
03.10.2023 19:00 14,7 C 13,8 C 10,7 C 86 % 1022,5 hPa 0,0 l/m 0,00 h 0,00 h 7 W/m 8,4 km/h (2 Bft) 99,49 %
03.10.2023 20:00 13,9 C 12,9 C 9,7 C 86 % 1023,3 hPa 0,0 l/m 0,00 h 0,00 h 0 W/m 5,2 km/h (1 Bft) 94,50 %
03.10.2023 21:00 13,4 C 12,7 C 9,4 C 87 % 1024,1 hPa 0,0 l/m 0,00 h 0,00 h 0 W/m 6,6 km/h (2 Bft) 97,57 %
03.10.2023 22:00 13,4 C 12,8 C 9,4 C 85 % 1024,7 hPa 0,0 l/m 0,00 h 0,00 h 0 W/m 8,8 km/h (2 Bft) 95,96 %
03.10.2023 23:00 13,3 C 12,2 C 9,4 C 85 % 1025,1 hPa 0,0 l/m 0,00 h 0,00 h 0 W/m 6,4 km/h (2 Bft) 97,57 %
04.10.2023 00:00 13,2 C 12,2 C 9,4 C 86 % 1025,4 hPa 0,0 l/m 0,00 h 0,00 h 0 W/m 8,7 km/h (2 Bft) 97,09 %
04.10.2023 01:00 13,1 C 12,2 C 8,9 C 87 % 1025,4 hPa 0,0 l/m 0,00 h 0,00 h 0 W/m 11,3 km/h (2 Bft) 95,85 %
04.10.2023 02:00 12,8 C 11,9 C 8,9 C 89 % 1025,9 hPa 0,0 l/m 0,00 h 0,00 h 0 W/m 10,0 km/h (2 Bft) 99,60 %
04.10.2023 03:00 12,5 C 11,7 C 8,5 C 91 % 1026,2 hPa 0,0 l/m 0,00 h 0,00 h 0 W/m 12,1 km/h (2 Bft) 94,98 %
04.10.2023 04:00 12,5 C 11,8 C 8,7 C 92 % 1026,2 hPa 0,0 l/m 0,00 h 0,00 h 0 W/m 10,6 km/h (2 Bft) 99,43 %
04.10.2023 05:00 12,7 C 12,2 C 8,9 C 92 % 1026,3 hPa 0,0 l/m 0,00 h 0,00 h 0 W/m 11,2 km/h (2 Bft) 97,72 %
04.10.2023 06:00 12,3 C 11,4 C 8,4 C 92 % 1026,5 hPa 0,0 l/m 0,00 h 0,00 h 0 W/m 9,0 km/h (2 Bft) 96,33 %
04.10.2023 07:00 11,7 C 10,9 C 7,8 C 94 % 1026,5 hPa 0,0 l/m 0,00 h 0,00 h 7 W/m 9,3 km/h (2 Bft) 98,59 %
04.10.2023 08:00 11,6 C 11,0 C 7,9 C 94 % 1027,2 hPa 0,0 l/m 0,00 h 0,00 h 28 W/m 8,1 km/h (2 Bft) 95,17 %
04.10.2023 09:00 12,3 C 12,2 C 8,6 C 93 % 1027,8 hPa 0,0 l/m 0,00 h 0,00 h 60 W/m 10,7 km/h (2 Bft) 97,35 %
04.10.2023 10:00 13,7 C 13,8 C 10,0 C 90 % 1028,1 hPa 0,0 l/m 0,13 h 0,00 h 136 W/m 11,0 km/h (2 Bft) 98,18 %
04.10.2023 11:00 15,2 C 16,8 C 12,4 C 86 % 1028,2 hPa 0,0 l/m 0,90 h 0,00 h 302 W/m 14,2 km/h (3 Bft) 96,63 %
04.10.2023 12:00 16,3 C 16,6 C 12,6 C 80 % 1028,0 hPa 0,0 l/m 0,07 h 0,00 h 225 W/m 13,1 km/h (3 Bft) 97,22 %
04.10.2023 13:00 17,0 C 17,1 C 12,9 C 77 % 1027,9 hPa 0,0 l/m 0,07 h 0,00 h 246 W/m 12,9 km/h (3 Bft) 99,22 %
04.10.2023 14:00 17,8 C 18,2 C 13,8 C 73 % 1027,3 hPa 0,0 l/m 1,00 h 0,00 h 353 W/m 14,2 km/h (3 Bft) 95,72 %
04.10.2023 15:00 17,7 C 17,5 C 13,3 C 72 % 1027,2 hPa 0,0 l/m 0,40 h 0,00 h 204 W/m 11,9 km/h (2 Bft) 97,96 %
04.10.2023 16:00 17,3 C 17,0 C 13,1 C 74 % 1026,9 hPa 0,0 l/m 0,07 h 0,00 h 142 W/m 11,9 km/h (2 Bft) 98,00 %
04.10.2023 17:00 17,1 C 16,5 C 12,8 C 75 % 1026,4 hPa 0,0 l/m 0,07 h 0,00 h 81 W/m 9,2 km/h (2 Bft) 96,64 %
04.10.2023 18:00 16,7 C 15,9 C 12,2 C 78 % 1026,2 hPa 0,0 l/m 0,00 h 0,00 h 21 W/m 4,9 km/h (1 Bft) 95,91 %
04.10.2023 19:00 16,1 C 15,2 C 11,7 C 80 % 1026,2 hPa 0,0 l/m 0,00 h 0,00 h 0 W/m 5,8 km/h (2 Bft) 97,62 %
04.10.2023 20:00 15,7 C 14,8 C 11,2 C 83 % 1026,3 hPa 0,0 l/m 0,00 h 0,00 h 0 W/m 4,4 km/h (1 Bft) 96,88 %
04.10.2023 21:00 15,4 C 14,4 C 11,1 C 85 % 1026,0 hPa 0,0 l/m 0,00 h 0,00 h 0 W/m 6,4 km/h (2 Bft) 98,69 %
04.10.2023 22:00 15,0 C 14,1 C 10,8 C 85 % 1025,7 hPa 0,0 l/m 0,00 h 0,00 h 0 W/m 2,9 km/h (1 Bft) 96,79 %
04.10.2023 23:00 14,4 C 13,4 C 10,2 C 85 % 1025,5 hPa 0,0 l/m 0,00 h 0,00 h 0 W/m 9,8 km/h (2 Bft) 97,13 %
05.10.2023 00:00 13,9 C 13,0 C 10,0 C 86 % 1025,1 hPa 0,0 l/m 0,00 h 0,00 h 0 W/m 7,6 km/h (2 Bft) 98,40 %
05.10.2023 01:00 13,5 C 12,7 C 9,4 C 87 % 1024,6 hPa 0,0 l/m 0,00 h 0,00 h 0 W/m 10,4 km/h (2 Bft) 97,40 %
05.10.2023 02:00 13,2 C 12,4 C 9,4 C 88 % 1024,4 hPa 0,0 l/m 0,00 h 0,00 h 0 W/m 9,8 km/h (2 Bft) 96,95 %
05.10.2023 03:00 13,2 C 12,8 C 9,4 C 88 % 1024,5 hPa 0,0 l/m 0,00 h 0,00 h 0 W/m 7,1 km/h (2 Bft) 97,67 %
05.10.2023 04:00 13,2 C 12,5 C 9,4 C 88 % 1024,2 hPa 0,0 l/m 0,00 h 0,00 h 0 W/m 10,1 km/h (2 Bft) 95,92 %
05.10.2023 05:00 13,0 C 12,2 C 8,9 C 89 % 1024,0 hPa 0,0 l/m 0,00 h 0,00 h 0 W/m 6,4 km/h (2 Bft) 97,73 %
05.10.2023 06:00 12,7 C 11,9 C 8,8 C 90 % 1024,1 hPa 0,0 l/m 0,00 h 0,00 h 0 W/m 10,2 km/h (2 Bft) 97,61 %
05.10.2023 07:00 12,5 C 11,7 C 8,5 C 91 % 1023,9 hPa 0,0 l/m 0,00 h 0,00 h 7 W/m 12,0 km/h (2 Bft) 96,87 %
05.10.2023 08:00 12,7 C 12,2 C 8,9 C 91 % 1024,5 hPa 0,0 l/m 0,00 h 0,00 h 35 W/m 7,8 km/h (2 Bft) 97,99 %
05.10.2023 09:00 13,3 C 13,0 C 9,5 C 91 % 1025,0 hPa 0,0 l/m 0,00 h 0,00 h 81 W/m 7,6 km/h (2 Bft) 96,45 %
05.10.2023 10:00 14,2 C 14,3 C 10,5 C 89 % 1025,5 hPa 0,0 l/m 0,03 h 0,00 h 144 W/m 11,8 km/h (2 Bft) 97,93 %
05.10.2023 11:00 15,3 C 15,6 C 11,6 C 85 % 1025,9 hPa 0,0 l/m 0,03 h 0,00 h 203 W/m 13,0 km/h (3 Bft) 97,34 %
05.10.2023 12:00 15,8 C 15,6 C 11,8 C 83 % 1026,2 hPa 0,0 l/m 0,00 h 0,00 h 188 W/m 10,7 km/h (2 Bft) 96,90 %
05.10.2023 13:00 16,4 C 16,4 C 12,4 C 82 % 1025,9 hPa 0,0 l/m 0,00 h 0,00 h 212 W/m 11,7 km/h (2 Bft) 96,37 %
05.10.2023 14:00 17,5 C 17,9 C 13,1 C 78 % 1025,8 hPa 0,0 l/m 0,80 h 0,00 h 488 W/m 11,6 km/h (2 Bft) 99,53 %
05.10.2023 15:00 18,2 C 18,1 C 13,7 C 75 % 1025,8 hPa 0,0 l/m 0,67 h 0,00 h 283 W/m 13,3 km/h (3 Bft) 96,51 %
05.10.2023 16:00 18,3 C 18,1 C 13,8 C 73 % 1025,7 hPa 0,0 l/m 0,90 h 0,00 h 308 W/m 12,1 km/h (2 Bft) 97,38 %
05.10.2023 17:00 17,9 C 17,3 C 13,0 C 73 % 1025,6 hPa 0,0 l/m 0,77 h 0,00 h 131 W/m 9,8 km/h (2 Bft) 98,43 %
05.10.2023 18:00 17,1 C 16,2 C 12,3 C 76 % 1025,7 hPa 0,0 l/m 0,00 h 0,00 h 26 W/m 5,6 km/h (1 Bft) 96,03 %
05.10.2023 19:00 16,0 C 14,6 C 11,1 C 81 % 1026,0 hPa 0,0 l/m 0,00 h 0,00 h 4 W/m 2,1 km/h (1 Bft) 97,61 %
05.10.2023 20:00 15,0 C 13,8 C 10,1 C 84 % 1026,1 hPa 0,0 l/m 0,00 h 0,00 h 0 W/m 1,2 km/h (1 Bft) 97,22 %
05.10.2023 21:00 14,2 C 13,1 C 9,4 C 86 % 1026,2 hPa 0,0 l/m 0,00 h 0,00 h 0 W/m 3,9 km/h (1 Bft) 96,43 %
05.10.2023 22:00 13,5 C 12,4 C 9,1 C 88 % 1026,4 hPa 0,0 l/m 0,00 h 0,00 h 0 W/m 2,7 km/h (1 Bft) 99,02 %
05.10.2023 23:00 12,8 C 11,8 C 8,9 C 89 % 1026,6 hPa 0,0 l/m 0,00 h 0,00 h 0 W/m 3,1 km/h (1 Bft) 97,83 %
06.10.2023 00:00 12,3 C 11,4 C 8,3 C 90 % 1026,3 hPa 0,0 l/m 0,00 h 0,00 h 0 W/m 2,5 km/h (1 Bft) 95,14 %
06.10.2023 01:00 12,0 C 11,1 C 8,2 C 92 % 1026,3 hPa 0,0 l/m 0,00 h 0,00 h 0 W/m 4,1 km/h (1 Bft) 97,72 %
06.10.2023 02:00 11,8 C 11,1 C 8,2 C 93 % 1026,5 hPa 0,0 l/m 0,00 h 0,00 h 0 W/m 6,4 km/h (2 Bft) 98,23 %
06.10.2023 03:00 11,7 C 11,1 C 7,8 C 93 % 1026,1 hPa 0,0 l/m 0,00 h 0,00 h 0 W/m 5,4 km/h (1 Bft) 96,78 %
06.10.2023 04:00 11,5 C 10,7 C 7,7 C 93 % 1025,9 hPa 0,0 l/m 0,00 h 0,00 h 0 W/m 2,6 km/h (1 Bft) 94,44 %
06.10.2023 05:00 11,1 C 10,3 C 7,2 C 93 % 1025,8 hPa 0,0 l/m 0,00 h 0,00 h 0 W/m 3,2 km/h (1 Bft) 99,93 %
06.10.2023 06:00 10,8 C 10,0 C 7,2 C 94 % 1025,5 hPa 0,0 l/m 0,00 h 0,00 h 0 W/m 3,1 km/h (1 Bft) 98,81 %
06.10.2023 07:00 10,6 C 10,0 C 6,8 C 94 % 1025,4 hPa 0,0 l/m 0,00 h 0,00 h 7 W/m 1,3 km/h (1 Bft) 96,16 %
06.10.2023 08:00 10,9 C 11,0 C 7,7 C 95 % 1025,6 hPa 0,0 l/m 0,00 h 0,00 h 44 W/m 5,8 km/h (2 Bft) 95,17 %
06.10.2023 09:00 12,5 C 12,7 C 9,1 C 92 % 1025,7 hPa 0,0 l/m 0,00 h 0,00 h 83 W/m 10,5 km/h (2 Bft) 98,23 %
06.10.2023 10:00 14,1 C 14,4 C 10,1 C 88 % 1025,7 hPa 0,0 l/m 0,00 h 0,00 h 87 W/m 15,0 km/h (3 Bft) 95,52 %
06.10.2023 11:00 16,4 C 18,6 C 13,1 C 79 % 1025,8 hPa 0,0 l/m 0,67 h 0,00 h 337 W/m 17,4 km/h (3 Bft) 97,26 %
06.10.2023 12:00 17,9 C 17,7 C 13,6 C 74 % 1025,2 hPa 0,0 l/m 0,00 h 0,00 h 128 W/m 19,3 km/h (3 Bft) 98,65 %
06.10.2023 13:00 18,5 C 18,1 C 13,9 C 73 % 1024,9 hPa 0,0 l/m 0,00 h 0,00 h 121 W/m 19,9 km/h (4 Bft) 97,18 %
06.10.2023 14:00 19,3 C 19,6 C 14,6 C 72 % 1024,2 hPa 0,0 l/m 0,93 h 0,00 h 460 W/m 15,4 km/h (3 Bft) 97,58 %
06.10.2023 15:00 19,7 C 19,2 C 15,0 C 71 % 1023,8 hPa 0,0 l/m 0,97 h 0,00 h 373 W/m 16,3 km/h (3 Bft) 97,21 %
06.10.2023 16:00 19,5 C 18,9 C 14,7 C 71 % 1023,5 hPa 0,0 l/m 0,95 h 0,00 h 274 W/m 16,1 km/h (3 Bft) 98,47 %
06.10.2023 17:00 19,3 C 18,8 C 14,4 C 74 % 1023,2 hPa 0,0 l/m 0,83 h 0,00 h 142 W/m 11,3 km/h (2 Bft) 96,17 %
06.10.2023 18:00 18,7 C 17,7 C 13,7 C 75 % 1023,1 hPa 0,0 l/m 0,33 h 0,00 h 33 W/m 11,7 km/h (2 Bft) 98,17 %
06.10.2023 19:00 17,5 C 16,4 C 12,6 C 78 % 1023,2 hPa 0,0 l/m 0,00 h 0,00 h 0 W/m 8,0 km/h (2 Bft) 99,17 %
06.10.2023 20:00 16,7 C 15,7 C 12,0 C 81 % 1023,2 hPa 0,0 l/m 0,00 h 0,00 h 0 W/m 6,1 km/h (2 Bft) 95,26 %
06.10.2023 21:00 16,2 C 15,4 C 11,7 C 83 % 1023,2 hPa 0,0 l/m 0,00 h 0,00 h 0 W/m 9,8 km/h (2 Bft) 98,73 %
06.10.2023 22:00 15,9 C 15,1 C 11,3 C 84 % 1023,0 hPa 0,0 l/m 0,00 h 0,00 h 0 W/m 9,5 km/h (2 Bft) 97,17 %
06.10.2023 23:00 15,4 C 14,4 C 10,9 C 85 % 1023,2 hPa 0,0 l/m 0,00 h 0,00 h 0 W/m 8,1 km/h (2 Bft) 96,53 %
07.10.2023 00:00 15,1 C 14,4 C 10,6 C 84 % 1023,2 hPa 0,0 l/m 0,00 h 0,00 h 0 W/m 11,1 km/h (2 Bft) 98,53 %
07.10.2023 01:00 14,8 C 14,0 C 10,4 C 85 % 1023,0 hPa 0,0 l/m 0,00 h 0,00 h 0 W/m 13,2 km/h (3 Bft) 97,35 %
07.10.2023 02:00 14,3 C 13,3 C 10,0 C 88 % 1022,9 hPa 0,0 l/m 0,00 h 0,00 h 0 W/m 12,8 km/h (3 Bft) 98,02 %
07.10.2023 03:00 14,2 C 13,3 C 10,0 C 90 % 1022,4 hPa 0,0 l/m 0,00 h 0,00 h 0 W/m 12,4 km/h (3 Bft) 96,46 %
07.10.2023 04:00 14,1 C 13,3 C 10,0 C 92 % 1022,4 hPa 0,0 l/m 0,00 h 0,00 h 0 W/m 12,4 km/h (3 Bft) 99,28 %
07.10.2023 05:00 14,2 C 13,4 C 10,0 C 93 % 1022,4 hPa 0,0 l/m 0,00 h 0,00 h 0 W/m 9,3 km/h (2 Bft) 96,25 %
07.10.2023 06:00 14,4 C 13,9 C 10,5 C 93 % 1022,2 hPa 0,0 l/m 0,00 h 0,00 h 0 W/m 13,4 km/h (3 Bft) 97,58 %
07.10.2023 07:00 14,6 C 13,9 C 10,6 C 93 % 1022,1 hPa 0,0 l/m 0,00 h 0,00 h 5 W/m 10,1 km/h (2 Bft) 97,94 %
07.10.2023 08:00 14,7 C 14,1 C 10,7 C 93 % 1022,4 hPa 0,0 l/m 0,00 h 0,00 h 29 W/m 10,8 km/h (2 Bft) 96,16 %
07.10.2023 09:00 15,4 C 15,0 C 11,1 C 92 % 1022,6 hPa 0,0 l/m 0,00 h 0,00 h 63 W/m 13,1 km/h (3 Bft) 97,30 %
07.10.2023 10:00 15,8 C 15,6 C 11,9 C 91 % 1022,8 hPa 0,0 l/m 0,00 h 0,00 h 96 W/m 14,2 km/h (3 Bft) 98,62 %
07.10.2023 11:00 17,4 C 19,1 C 14,1 C 88 % 1022,7 hPa 0,0 l/m 0,53 h 0,00 h 278 W/m 17,6 km/h (3 Bft) 95,60 %
07.10.2023 12:00 19,3 C 19,3 C 15,1 C 82 % 1022,5 hPa 0,0 l/m 0,03 h 0,00 h 112 W/m 19,0 km/h (3 Bft) 98,59 %
07.10.2023 13:00 20,4 C 20,2 C 15,8 C 77 % 1022,2 hPa 0,0 l/m 0,03 h 0,00 h 120 W/m 16,4 km/h (3 Bft) 97,21 %
07.10.2023 14:00 21,3 C 21,2 C 16,3 C 74 % 1022,1 hPa 0,0 l/m 1,00 h 0,00 h 453 W/m 17,1 km/h (3 Bft) 97,65 %
07.10.2023 15:00 21,8 C 21,1 C 16,7 C 72 % 1022,2 hPa 0,0 l/m 1,00 h 0,00 h 381 W/m 17,2 km/h (3 Bft) 96,66 %
07.10.2023 16:00 21,9 C 21,3 C 16,9 C 71 % 1021,5 hPa 0,0 l/m 0,87 h 0,00 h 280 W/m 18,0 km/h (3 Bft) 98,36 %
07.10.2023 17:00 21,7 C 20,9 C 16,6 C 71 % 1021,7 hPa 0,0 l/m 0,47 h 0,00 h 107 W/m 15,6 km/h (3 Bft) 97,58 %
07.10.2023 18:00 20,7 C 19,5 C 15,4 C 74 % 1021,7 hPa 0,0 l/m 0,00 h 0,00 h 19 W/m 10,3 km/h (2 Bft) 96,47 %
07.10.2023 19:00 19,8 C 18,6 C 14,7 C 77 % 1022,1 hPa 0,0 l/m 0,00 h 0,00 h 0 W/m 9,1 km/h (2 Bft) 97,76 %
07.10.2023 20:00 19,3 C 18,3 C 14,4 C 78 % 1022,0 hPa 0,0 l/m 0,00 h 0,00 h 0 W/m 11,9 km/h (2 Bft) 98,65 %
07.10.2023 21:00 19,3 C 18,3 C 14,4 C 79 % 1022,0 hPa 0,0 l/m 0,00 h 0,00 h 0 W/m 15,1 km/h (3 Bft) 95,45 %
07.10.2023 22:00 19,3 C 18,3 C 14,4 C 80 % 1022,5 hPa 0,0 l/m 0,00 h 0,00 h 0 W/m 14,0 km/h (3 Bft) 99,64 %
07.10.2023 23:00 18,8 C 17,8 C 13,9 C 81 % 1022,7 hPa 0,0 l/m 0,00 h 0,00 h 0 W/m 14,0 km/h (3 Bft) 96,80 %
08.10.2023 00:00 18,4 C 17,6 C 13,9 C 80 % 1022,8 hPa 0,0 l/m 0,00 h 0,00 h 0 W/m 13,0 km/h (3 Bft) 97,26 %
08.10.2023 01:00 18,2 C 17,2 C 13,4 C 79 % 1023,0 hPa 0,0 l/m 0,00 h 0,00 h 0 W/m 11,4 km/h (2 Bft) 98,63 %
08.10.2023 02:00 17,7 C 16,7 C 12,9 C 81 % 1023,5 hPa 0,0 l/m 0,00 h 0,00 h 0 W/m 9,7 km/h (2 Bft) 96,74 %
08.10.2023 03:00 17,0 C 16,0 C 12,4 C 83 % 1023,6 hPa 0,0 l/m 0,00 h 0,00 h 0 W/m 7,8 km/h (2 Bft) 97,87 %
08.10.2023 04:00 16,2 C 15,5 C 11,7 C 84 % 1023,6 hPa 0,0 l/m 0,00 h 0,00 h 0 W/m 4,7 km/h (1 Bft) 98,79 %
08.10.2023 05:00 16,0 C 15,1 C 11,7 C 84 % 1024,0 hPa 0,0 l/m 0,00 h 0,00 h 0 W/m 6,1 km/h (2 Bft) 96,16 %
08.10.2023 06:00 15,7 C 14,8 C 11,3 C 83 % 1024,1 hPa 0,0 l/m 0,00 h 0,00 h 0 W/m 7,0 km/h (2 Bft) 98,15 %
08.10.2023 07:00 15,4 C 14,4 C 11,1 C 84 % 1024,6 hPa 0,0 l/m 0,00 h 0,07 h 0 W/m 5,0 km/h (1 Bft) 98,15 %
08.10.2023 08:00 15,2 C 14,4 C 11,1 C 85 % 1024,7 hPa 0,0 l/m 0,00 h 0,00 h 25 W/m 4,2 km/h (1 Bft) 95,62 %
08.10.2023 09:00 15,4 C 14,9 C 11,3 C 86 % 1025,3 hPa 0,0 l/m 0,00 h 0,00 h 63 W/m 5,2 km/h (1 Bft) 98,58 %
08.10.2023 10:00 15,8 C 15,8 C 11,9 C 86 % 1025,8 hPa 0,0 l/m 0,00 h 0,00 h 116 W/m 4,1 km/h (1 Bft) 96,17 %
08.10.2023 11:00 17,0 C 17,6 C 13,1 C 85 % 1026,2 hPa 0,0 l/m 0,20 h 0,00 h 216 W/m 6,0 km/h (2 Bft) 97,73 %
08.10.2023 12:00 18,0 C 18,5 C 14,0 C 84 % 1026,3 hPa 0,0 l/m 0,10 h 0,00 h 221 W/m 3,9 km/h (1 Bft) 98,69 %
08.10.2023 13:00 18,6 C 18,9 C 14,3 C 83 % 1026,3 hPa 0,0 l/m 0,07 h 0,00 h 219 W/m 4,2 km/h (1 Bft) 96,99 %
08.10.2023 14:00 18,4 C 18,0 C 13,8 C 85 % 1025,9 hPa 0,0 l/m 0,03 h 0,03 h 116 W/m 4,6 km/h (1 Bft) 97,30 %
08.10.2023 15:00 18,1 C 18,5 C 14,2 C 88 % 1025,3 hPa 0,0 l/m 0,53 h 0,00 h 217 W/m 6,1 km/h (2 Bft) 99,36 %
08.10.2023 16:00 18,7 C 18,6 C 14,2 C 86 % 1024,8 hPa 0,0 l/m 0,53 h 0,00 h 180 W/m 5,2 km/h (1 Bft) 96,52 %
08.10.2023 17:00 18,2 C 17,8 C 13,7 C 87 % 1024,6 hPa 0,0 l/m 0,57 h 0,00 h 114 W/m 5,0 km/h (1 Bft) 97,95 %
08.10.2023 18:00 17,5 C 16,2 C 12,5 C 89 % 1024,3 hPa 0,0 l/m 0,00 h 0,00 h 19 W/m 2,8 km/h (1 Bft) 98,27 %
08.10.2023 19:00 16,1 C 14,5 C 11,3 C 91 % 1024,2 hPa 0,0 l/m 0,00 h 0,00 h 0 W/m 0,9 km/h (0 Bft) 96,09 %
08.10.2023 20:00 15,1 C 13,7 C 10,5 C 93 % 1023,7 hPa 0,0 l/m 0,00 h 0,00 h 0 W/m 0,2 km/h (0 Bft) 98,58 %
08.10.2023 21:00 14,4 C 13,3 C 10,0 C 94 % 1023,0 hPa 0,0 l/m 0,00 h 0,00 h 0 W/m 1,2 km/h (1 Bft) 98,07 %
08.10.2023 22:00 14,3 C 13,5 C 10,2 C 96 % 1022,5 hPa 0,0 l/m 0,00 h 0,00 h 0 W/m 3,4 km/h (1 Bft) 95,66 %
08.10.2023 23:00 14,6 C 13,8 C 10,5 C 97 % 1022,3 hPa 0,0 l/m 0,00 h 0,00 h 0 W/m 2,5 km/h (1 Bft) 97,21 %
Min-Datum _ 06.10.23 06.10.23 06.10.23 02.10.23 03.10.23 - - - - 02.10.23 08.10.23
_ Min-Zeit 07:44 05:25 07:10 14:58 05:22 - - - - 00:00 23:46
Minimum _ 10,5 C 10,0 C 6,7 C 69 % 1009,5 hPa - - - - 0,0 km/h (0 Bft) 33,33 %
Max-Datum _ 02.10.23 02.10.23 02.10.23 08.10.23 04.10.23 03.10.23 03.10.23 03.10.23 05.10.23 03.10.23 02.10.23
_ Max-Zeit 16:38 11:40 11:40 23:10 11:46 12:08 17:06 12:08 14:30 11:08 00:22
Maximum _ 26,1 C 28,3 C 21,1 C 97 % 1028,3 hPa 3,4 l/m 0,08 h 0,07 h 661 W/m 38,6 km/h
SO (5 Bft)
100,00 %
Durchschnitt _ 16,5 C 15,9 C 12,1 C 85 % 1022,6 hPa #3,4 l/m #21:57 h #52 min. 147 W/m 9,3 km/h (2 Bft) 97,35 %
© 2023 W. Hausmann